createdAt,value
2018-12-11T00:01:41.257Z,87.90
2018-12-11T00:04:09.868Z,87.80
2018-12-11T00:06:48.273Z,87.70
2018-12-11T00:09:17.134Z,87.70
2018-12-11T00:11:45.818Z,87.70
2018-12-11T00:14:14.362Z,87.80
2018-12-11T00:16:43.533Z,87.80
2018-12-11T00:19:12.374Z,87.80
2018-12-11T00:21:40.996Z,87.80
2018-12-11T00:24:09.887Z,88.20
2018-12-11T00:26:38.823Z,87.60
2018-12-11T00:29:07.806Z,87.80
2018-12-11T00:31:36.824Z,87.80
2018-12-11T00:34:05.645Z,87.90
2018-12-11T00:36:34.199Z,87.80
2018-12-11T00:39:05.495Z,87.70
2018-12-11T00:41:34.485Z,87.60
2018-12-11T00:44:03.498Z,87.60
2018-12-11T00:46:32.154Z,87.70
2018-12-11T00:49:01.356Z,87.80
2018-12-11T00:51:30.720Z,87.90
2018-12-11T00:53:59.315Z,87.90
2018-12-11T00:56:28.100Z,88.60
2018-12-11T00:58:56.885Z,88.30
2018-12-11T01:01:25.505Z,88.50
2018-12-11T01:03:54.300Z,88.50
2018-12-11T01:06:25.865Z,88.40
2018-12-11T01:08:54.907Z,88.30
2018-12-11T01:11:23.509Z,88.20
2018-12-11T01:13:52.099Z,88.10
2018-12-11T01:16:20.778Z,87.80
2018-12-11T01:18:49.557Z,87.90
2018-12-11T01:21:18.232Z,88.00
2018-12-11T01:23:47.068Z,87.90
2018-12-11T01:26:15.895Z,88.10
2018-12-11T01:28:44.869Z,87.90
2018-12-11T01:31:13.608Z,87.60
2018-12-11T01:33:42.373Z,87.40
2018-12-11T01:36:11.102Z,87.40
2018-12-11T01:38:39.740Z,87.70
2018-12-11T01:41:08.511Z,87.60
2018-12-11T01:43:37.097Z,87.50
2018-12-11T01:46:05.737Z,87.60
2018-12-11T01:48:34.532Z,87.70
2018-12-11T01:51:03.191Z,87.70
2018-12-11T01:53:31.905Z,87.80
2018-12-11T01:56:00.601Z,87.80
2018-12-11T01:58:29.263Z,87.60
2018-12-11T02:00:58.064Z,87.90
2018-12-11T02:03:26.709Z,88.10
2018-12-11T02:05:55.261Z,88.20
2018-12-11T02:08:24.052Z,88.30
2018-12-11T02:10:52.699Z,88.40
2018-12-11T02:13:21.265Z,88.30
2018-12-11T02:15:49.855Z,88.20
2018-12-11T02:18:18.453Z,88.20
2018-12-11T02:20:47.024Z,88.20
2018-12-11T02:23:15.798Z,87.80
2018-12-11T02:25:44.418Z,87.50
2018-12-11T02:28:13.160Z,87.90
2018-12-11T02:30:41.832Z,87.90
2018-12-11T02:33:10.644Z,88.10
2018-12-11T02:35:39.628Z,88.20
2018-12-11T02:38:08.311Z,88.30
2018-12-11T02:40:37.169Z,88.20
2018-12-11T02:43:06.043Z,88.10
2018-12-11T02:45:34.940Z,88.10
2018-12-11T02:48:03.614Z,88.20
2018-12-11T02:50:32.893Z,88.20
2018-12-11T02:53:01.458Z,88.10
2018-12-11T02:55:30.008Z,88.10
2018-12-11T02:57:58.592Z,87.90
2018-12-11T03:00:27.412Z,87.40
2018-12-11T03:02:55.967Z,87.60
2018-12-11T03:05:24.657Z,87.90
2018-12-11T03:07:53.160Z,88.00
2018-12-11T03:10:21.728Z,88.10
2018-12-11T03:12:50.473Z,88.20
2018-12-11T03:15:19.190Z,88.10
2018-12-11T03:17:48.042Z,87.90
2018-12-11T03:20:16.817Z,87.10
2018-12-11T03:22:45.504Z,87.20
2018-12-11T03:25:14.399Z,87.20
2018-12-11T03:27:42.973Z,86.60
2018-12-11T03:30:11.698Z,87.80
2018-12-11T03:32:40.262Z,88.20
2018-12-11T03:35:09.078Z,88.20
2018-12-11T03:37:37.823Z,88.10
2018-12-11T03:40:06.804Z,88.90
2018-12-11T03:42:35.611Z,88.10
2018-12-11T03:45:04.897Z,88.10
2018-12-11T03:47:33.529Z,88.10
2018-12-11T03:50:02.248Z,88.00
2018-12-11T03:52:30.918Z,88.10
2018-12-11T03:54:59.561Z,88.50
2018-12-11T03:57:28.223Z,88.40
2018-12-11T03:59:56.950Z,88.40
2018-12-11T04:02:25.537Z,88.20
2018-12-11T04:04:54.089Z,88.20
2018-12-11T04:07:22.886Z,88.00
2018-12-11T04:09:51.494Z,88.10
2018-12-11T04:12:20.369Z,87.80
2018-12-11T04:14:49.405Z,87.60
2018-12-11T04:17:18.371Z,87.50
2018-12-11T04:19:48.788Z,87.60
2018-12-11T04:22:17.373Z,87.60
2018-12-11T04:24:46.161Z,87.60
2018-12-11T04:27:15.480Z,87.70
2018-12-11T04:29:44.262Z,87.90
2018-12-11T04:32:12.920Z,87.70
2018-12-11T04:34:41.616Z,87.40
2018-12-11T04:37:10.197Z,87.40
2018-12-11T04:39:38.903Z,87.40
2018-12-11T04:42:07.640Z,87.40
2018-12-11T04:44:36.334Z,87.50
2018-12-11T04:47:05.159Z,87.50
2018-12-11T04:49:33.978Z,87.70
2018-12-11T04:52:02.932Z,87.70
2018-12-11T04:54:31.484Z,87.70
2018-12-11T04:57:00.033Z,88.00
2018-12-11T04:59:28.671Z,88.20
2018-12-11T05:01:57.213Z,88.10
2018-12-11T05:04:25.906Z,88.10
2018-12-11T05:06:54.581Z,88.00
2018-12-11T05:09:23.306Z,87.90
2018-12-11T05:11:51.990Z,87.80
2018-12-11T05:14:20.761Z,87.90
2018-12-11T05:16:49.305Z,87.50
2018-12-11T05:19:17.825Z,87.50
2018-12-11T05:21:46.654Z,87.70
2018-12-11T05:24:15.265Z,87.80
2018-12-11T05:26:43.837Z,87.70
2018-12-11T05:29:12.525Z,87.80
2018-12-11T05:31:41.035Z,87.90
2018-12-11T05:34:09.613Z,88.00
2018-12-11T05:36:38.361Z,88.10
2018-12-11T05:39:07.678Z,88.30
2018-12-11T05:41:36.266Z,88.30
2018-12-11T05:44:05.088Z,88.10
2018-12-11T05:46:33.879Z,88.20
2018-12-11T05:49:02.622Z,88.20
2018-12-11T05:51:31.194Z,88.20
2018-12-11T05:53:59.847Z,88.00
2018-12-11T05:56:28.360Z,87.60
2018-12-11T05:58:57.023Z,87.50
2018-12-11T06:01:25.739Z,87.50
2018-12-11T06:03:54.300Z,87.40
2018-12-11T06:06:23.056Z,87.50
2018-12-11T06:08:51.607Z,87.40
2018-12-11T06:11:20.402Z,87.20
2018-12-11T06:13:48.989Z,87.40
2018-12-11T06:16:18.089Z,87.70
2018-12-11T06:18:47.008Z,87.50
2018-12-11T06:21:15.528Z,87.50
2018-12-11T06:23:44.185Z,87.60
2018-12-11T06:26:12.761Z,87.80
2018-12-11T06:28:41.352Z,87.90
2018-12-11T06:31:09.971Z,88.10
2018-12-11T06:33:38.655Z,88.20
2018-12-11T06:36:07.525Z,88.20
2018-12-11T06:38:36.460Z,88.30
2018-12-11T06:41:05.224Z,88.30
2018-12-11T06:43:33.913Z,88.10
2018-12-11T06:46:02.456Z,88.20
2018-12-11T06:48:31.054Z,88.30
2018-12-11T06:50:59.890Z,88.20
2018-12-11T06:53:29.059Z,88.20
2018-12-11T06:55:57.881Z,88.10
2018-12-11T06:58:26.752Z,88.00
2018-12-11T07:00:55.442Z,88.10
2018-12-11T07:03:24.030Z,87.90
2018-12-11T07:05:52.718Z,87.90
2018-12-11T07:08:21.382Z,88.10
2018-12-11T07:10:49.917Z,88.50
2018-12-11T07:13:18.659Z,88.60
2018-12-11T07:15:47.325Z,88.50
2018-12-11T07:18:15.880Z,88.60
2018-12-11T07:20:44.534Z,88.50
2018-12-11T07:23:13.131Z,88.40
2018-12-11T07:25:41.892Z,88.30
2018-12-11T07:28:10.527Z,88.40
2018-12-11T07:30:39.283Z,88.60
2018-12-11T07:33:08.215Z,88.60
2018-12-11T07:35:36.836Z,88.50
2018-12-11T07:38:05.369Z,88.60
2018-12-11T07:40:34.069Z,88.50
2018-12-11T07:43:02.733Z,88.30
2018-12-11T07:45:31.487Z,88.30
2018-12-11T07:48:00.117Z,88.30
2018-12-11T07:50:28.825Z,88.30
2018-12-11T07:52:57.637Z,88.40
2018-12-11T07:55:26.149Z,88.30
2018-12-11T07:57:54.904Z,88.10
2018-12-11T08:00:23.493Z,87.80
2018-12-11T08:02:52.190Z,87.80
2018-12-11T08:05:20.821Z,88.00
2018-12-11T08:07:49.437Z,88.10
2018-12-11T08:10:18.221Z,88.10
2018-12-11T08:12:46.996Z,88.10
2018-12-11T08:15:15.708Z,87.20
2018-12-11T08:17:44.419Z,88.00
2018-12-11T08:20:13.165Z,88.00
2018-12-11T08:22:41.855Z,88.20
2018-12-11T08:25:10.538Z,88.30
2018-12-11T08:27:39.369Z,88.50
2018-12-11T08:30:08.138Z,88.50
2018-12-11T08:32:36.904Z,88.50
2018-12-11T08:35:06.063Z,88.50
2018-12-11T08:37:34.825Z,88.90
2018-12-11T08:40:03.805Z,88.60
2018-12-11T08:42:32.494Z,88.10
2018-12-11T08:45:01.299Z,88.10
2018-12-11T08:47:29.929Z,88.50
2018-12-11T08:49:58.468Z,88.70
2018-12-11T08:52:27.142Z,88.60
2018-12-11T08:54:55.841Z,88.50
2018-12-11T08:57:24.431Z,88.70
2018-12-11T08:59:53.207Z,88.80
2018-12-11T09:02:21.851Z,88.80
2018-12-11T09:04:50.662Z,88.90
2018-12-11T09:07:19.388Z,88.90
2018-12-11T09:09:48.174Z,89.10
2018-12-11T09:12:16.728Z,89.10
2018-12-11T09:14:45.656Z,89.30
2018-12-11T09:17:14.188Z,89.40
2018-12-11T09:19:42.753Z,89.20
2018-12-11T09:22:11.491Z,89.40
2018-12-11T09:24:40.205Z,89.20
2018-12-11T09:27:08.792Z,89.30
2018-12-11T09:29:37.312Z,89.00
2018-12-11T09:32:05.952Z,88.90
2018-12-11T09:34:34.650Z,88.90
2018-12-11T09:37:03.269Z,88.50
2018-12-11T09:39:31.926Z,88.70
2018-12-11T09:42:06.881Z,89.50
2018-12-11T09:44:31.242Z,88.80
2018-12-11T09:46:59.901Z,88.80
2018-12-11T09:49:29.911Z,88.80
2018-12-11T09:51:58.792Z,88.90
2018-12-11T09:54:27.578Z,88.60
2018-12-11T09:56:56.144Z,88.70
2018-12-11T09:59:24.763Z,88.60
2018-12-11T10:01:53.653Z,88.70
2018-12-11T10:04:22.167Z,89.00
2018-12-11T10:06:50.833Z,89.20
2018-12-11T10:09:19.589Z,89.10
2018-12-11T10:11:48.393Z,89.10
2018-12-11T10:14:17.267Z,89.20
2018-12-11T10:16:45.958Z,89.40
2018-12-11T10:19:14.654Z,89.40
2018-12-11T10:21:43.342Z,89.50
2018-12-11T10:24:11.983Z,89.50
2018-12-11T10:26:40.714Z,89.60
2018-12-11T10:29:09.368Z,89.70
2018-12-11T10:31:37.950Z,89.70
2018-12-11T10:34:06.575Z,89.80
2018-12-11T10:36:35.328Z,89.80
2018-12-11T10:39:06.356Z,89.80
2018-12-11T10:41:35.275Z,90.00
2018-12-11T10:44:04.180Z,90.00
2018-12-11T10:46:33.893Z,90.00
2018-12-11T10:49:02.802Z,89.80
2018-12-11T10:51:31.429Z,89.80
2018-12-11T10:54:00.109Z,90.50
2018-12-11T10:56:28.737Z,90.20
2018-12-11T10:58:57.414Z,89.70
2018-12-11T11:01:27.853Z,89.60
2018-12-11T11:03:56.605Z,89.80
2018-12-11T11:06:25.373Z,89.90
2018-12-11T11:08:54.008Z,89.30
2018-12-11T11:11:22.696Z,90.00
2018-12-11T11:13:51.465Z,90.00
2018-12-11T11:16:20.004Z,89.80
2018-12-11T11:18:48.920Z,89.90
2018-12-11T11:21:17.639Z,89.70
2018-12-11T11:23:46.427Z,89.40
2018-12-11T11:26:15.324Z,89.60
2018-12-11T11:28:43.980Z,89.40
2018-12-11T11:31:12.657Z,89.30
2018-12-11T11:33:41.268Z,89.50
2018-12-11T11:36:09.932Z,89.00
2018-12-11T11:38:38.512Z,89.10
2018-12-11T11:41:07.042Z,89.50
2018-12-11T11:43:35.807Z,88.60
2018-12-11T11:46:04.405Z,88.40
2018-12-11T11:48:33.009Z,88.30
2018-12-11T11:51:01.671Z,88.20
2018-12-11T11:53:30.236Z,87.80
2018-12-11T11:55:58.908Z,88.70
2018-12-11T11:58:27.423Z,87.80
2018-12-11T12:00:55.948Z,88.50
2018-12-11T12:03:24.687Z,87.90
2018-12-11T12:05:53.421Z,87.60
2018-12-11T12:08:22.085Z,87.30
2018-12-11T12:10:50.753Z,87.30
2018-12-11T12:13:19.385Z,87.20
2018-12-11T12:15:47.926Z,87.20
2018-12-11T12:18:16.597Z,86.90
2018-12-11T12:20:45.164Z,86.90
2018-12-11T12:23:13.862Z,86.80
2018-12-11T12:25:42.477Z,86.90
2018-12-11T12:28:11.158Z,86.80
2018-12-11T12:30:40.249Z,86.40
2018-12-11T12:33:09.204Z,86.30
2018-12-11T12:35:37.745Z,86.00
2018-12-11T12:38:06.289Z,86.20
2018-12-11T12:40:35.093Z,86.00
2018-12-11T12:43:03.921Z,85.90
2018-12-11T12:45:32.764Z,85.90
2018-12-11T12:48:01.584Z,85.90
2018-12-11T12:50:30.217Z,86.00
2018-12-11T12:52:58.839Z,85.80
2018-12-11T12:55:27.756Z,85.80
2018-12-11T12:57:56.362Z,85.70
2018-12-11T13:00:24.917Z,85.60
2018-12-11T13:02:53.466Z,85.30
2018-12-11T13:05:22.112Z,85.20
2018-12-11T13:07:50.648Z,85.20
2018-12-11T13:10:19.425Z,85.00
2018-12-11T13:12:48.128Z,84.90
2018-12-11T13:15:16.871Z,85.00
2018-12-11T13:17:45.520Z,84.80
2018-12-11T13:20:14.292Z,84.90
2018-12-11T13:22:42.857Z,84.50
2018-12-11T13:25:11.437Z,84.40
2018-12-11T13:27:40.058Z,84.20
2018-12-11T13:30:08.936Z,84.20
2018-12-11T13:32:37.807Z,84.10
2018-12-11T13:35:06.759Z,83.70
2018-12-11T13:37:35.609Z,83.80
2018-12-11T13:40:05.588Z,83.00
2018-12-11T13:42:34.460Z,84.00
2018-12-11T13:45:03.297Z,83.80
2018-12-11T13:47:31.825Z,83.90
2018-12-11T13:50:00.607Z,83.90
2018-12-11T13:52:29.257Z,84.00
2018-12-11T13:54:57.953Z,84.00
2018-12-11T13:57:26.616Z,83.90
2018-12-11T13:59:55.610Z,83.80
2018-12-11T14:02:24.285Z,83.90
2018-12-11T14:04:52.983Z,83.60
2018-12-11T14:07:21.776Z,83.70
2018-12-11T14:09:50.366Z,83.60
2018-12-11T14:12:18.998Z,83.70
2018-12-11T14:14:47.893Z,83.70
2018-12-11T14:17:16.425Z,83.80
2018-12-11T14:19:45.075Z,83.80
2018-12-11T14:22:13.682Z,83.60
2018-12-11T14:24:42.318Z,83.60
2018-12-11T14:27:10.963Z,83.20
2018-12-11T14:29:39.660Z,83.20
2018-12-11T14:32:08.344Z,82.80
2018-12-11T14:34:36.882Z,83.00
2018-12-11T14:37:05.543Z,82.50
2018-12-11T14:39:34.303Z,82.80
2018-12-11T14:42:02.950Z,83.00
2018-12-11T14:44:31.868Z,83.20
2018-12-11T14:47:00.611Z,83.30
2018-12-11T14:49:29.162Z,83.60
2018-12-11T14:51:57.951Z,83.80
2018-12-11T14:54:26.594Z,84.10
2018-12-11T14:56:55.370Z,84.00
2018-12-11T14:59:24.077Z,84.10
2018-12-11T15:01:52.968Z,84.40
2018-12-11T15:04:21.620Z,84.50
2018-12-11T15:06:50.446Z,84.50
2018-12-11T15:09:24.762Z,84.70
2018-12-11T15:11:53.515Z,84.90
2018-12-11T15:14:22.390Z,84.90
2018-12-11T15:16:51.168Z,85.10
2018-12-11T15:19:20.125Z,85.10
2018-12-11T15:21:48.774Z,85.90
2018-12-11T15:24:17.495Z,85.30
2018-12-11T15:26:46.169Z,85.50
2018-12-11T15:29:15.073Z,85.50
2018-12-11T15:31:43.629Z,85.60
2018-12-11T15:34:12.243Z,85.60
2018-12-11T15:36:41.047Z,86.60
2018-12-11T15:39:09.777Z,86.30
2018-12-11T15:41:38.814Z,86.20
2018-12-11T15:44:07.598Z,86.20
2018-12-11T15:46:37.002Z,86.30
2018-12-11T15:49:05.901Z,86.40
2018-12-11T15:51:34.541Z,86.40
2018-12-11T15:54:03.340Z,86.40
2018-12-11T15:56:32.019Z,86.60
2018-12-11T15:59:00.686Z,86.70
2018-12-11T16:01:29.206Z,86.30
2018-12-11T16:03:57.905Z,86.70
2018-12-11T16:06:26.500Z,86.80
2018-12-11T16:08:55.184Z,86.90
2018-12-11T16:11:23.748Z,86.90
2018-12-11T16:13:52.435Z,87.00
2018-12-11T16:16:21.072Z,87.20
2018-12-11T16:18:49.717Z,87.30
2018-12-11T16:21:18.265Z,87.30
2018-12-11T16:23:46.856Z,87.30
2018-12-11T16:26:15.547Z,87.40
2018-12-11T16:28:44.363Z,87.40
2018-12-11T16:31:13.077Z,87.50
2018-12-11T16:33:42.112Z,87.50
2018-12-11T16:36:11.015Z,87.70
2018-12-11T16:38:39.866Z,87.70
2018-12-11T16:41:08.512Z,87.80
2018-12-11T16:43:37.033Z,87.80
2018-12-11T16:46:05.645Z,87.80
2018-12-11T16:48:34.560Z,87.80
2018-12-11T16:51:04.262Z,88.10
2018-12-11T16:53:33.169Z,88.10
2018-12-11T16:56:02.042Z,88.30
2018-12-11T16:58:30.763Z,88.20
2018-12-11T17:00:59.446Z,88.30
2018-12-11T17:03:28.321Z,88.30
2018-12-11T17:05:57.124Z,88.40
2018-12-11T17:08:25.897Z,88.40
2018-12-11T17:10:54.716Z,88.30
2018-12-11T17:13:23.389Z,88.30
2018-12-11T17:15:52.259Z,88.40
2018-12-11T17:18:20.921Z,88.30
2018-12-11T17:20:50.023Z,88.40
2018-12-11T17:23:18.905Z,88.40
2018-12-11T17:25:47.668Z,88.50
2018-12-11T17:28:16.345Z,88.50
2018-12-11T17:30:45.109Z,88.50
2018-12-11T17:33:13.687Z,88.50
2018-12-11T17:35:42.452Z,88.50
2018-12-11T17:38:11.084Z,88.80
2018-12-11T17:40:39.973Z,88.80
2018-12-11T17:43:08.695Z,88.90
2018-12-11T17:45:37.642Z,88.80
2018-12-11T17:48:07.537Z,88.90
2018-12-11T17:50:36.883Z,88.80
2018-12-11T17:53:05.585Z,88.80
2018-12-11T17:55:34.299Z,88.80
2018-12-11T17:58:03.093Z,89.50
2018-12-11T18:00:31.800Z,88.80
2018-12-11T18:03:00.465Z,88.70
2018-12-11T18:05:29.240Z,88.80
2018-12-11T18:07:58.032Z,88.80
2018-12-11T18:10:26.679Z,88.80
2018-12-11T18:12:55.184Z,88.90
2018-12-11T18:15:24.016Z,88.70
2018-12-11T18:17:52.544Z,88.80
2018-12-11T18:20:21.145Z,88.80
2018-12-11T18:22:49.744Z,88.80
2018-12-11T18:25:18.574Z,88.90
2018-12-11T18:27:47.381Z,88.80
2018-12-11T18:30:16.097Z,88.70
2018-12-11T18:32:44.833Z,88.60
2018-12-11T18:35:15.864Z,88.70
2018-12-11T18:37:44.798Z,88.70
2018-12-11T18:40:13.558Z,88.70
2018-12-11T18:42:42.119Z,88.70
2018-12-11T18:45:10.909Z,88.50
2018-12-11T18:47:39.579Z,88.50
2018-12-11T18:50:08.516Z,88.70
2018-12-11T18:52:37.127Z,88.80
2018-12-11T18:55:06.392Z,89.00
2018-12-11T18:57:35.030Z,89.10
2018-12-11T19:00:04.112Z,89.20
2018-12-11T19:02:33.001Z,89.20
2018-12-11T19:05:01.709Z,88.90
2018-12-11T19:07:30.233Z,88.90
2018-12-11T19:09:58.928Z,88.90
2018-12-11T19:12:27.662Z,88.90
2018-12-11T19:14:56.274Z,88.90
2018-12-11T19:17:24.957Z,89.00
2018-12-11T19:19:53.767Z,89.00
2018-12-11T19:22:22.625Z,88.90
2018-12-11T19:24:54.696Z,89.00
2018-12-11T19:27:23.242Z,89.10
2018-12-11T19:29:52.005Z,89.10
2018-12-11T19:32:21.070Z,89.00
2018-12-11T19:34:50.052Z,89.20
2018-12-11T19:37:18.822Z,89.10
2018-12-11T19:39:47.498Z,89.00
2018-12-11T19:42:16.398Z,89.20
2018-12-11T19:44:45.227Z,90.10
2018-12-11T19:47:14.056Z,89.70
2018-12-11T19:49:42.902Z,89.60
2018-12-11T19:52:11.896Z,89.50
2018-12-11T19:54:40.791Z,89.80
2018-12-11T19:57:09.835Z,89.70
2018-12-11T19:59:38.922Z,89.70
2018-12-11T20:02:08.106Z,89.80
2018-12-11T20:04:36.957Z,89.80
2018-12-11T20:07:05.901Z,89.90
2018-12-11T20:09:36.893Z,89.80
2018-12-11T20:12:05.702Z,89.80
2018-12-11T20:14:34.687Z,89.80
2018-12-11T20:17:04.067Z,89.80
2018-12-11T20:19:32.793Z,89.80
2018-12-11T20:22:01.688Z,89.80
2018-12-11T20:24:30.494Z,89.80
2018-12-11T20:26:59.353Z,89.90
2018-12-11T20:29:28.146Z,90.00
2018-12-11T20:31:57.214Z,90.00
2018-12-11T20:34:26.498Z,90.00
2018-12-11T20:36:55.431Z,90.00
2018-12-11T20:39:24.324Z,90.00
2018-12-11T20:41:53.618Z,89.90
2018-12-11T20:44:22.749Z,89.90
2018-12-11T20:46:51.953Z,89.90
2018-12-11T20:49:20.782Z,89.90
2018-12-11T20:51:49.780Z,89.80
2018-12-11T20:54:18.686Z,89.70
2018-12-11T20:56:47.359Z,89.90
2018-12-11T20:59:16.371Z,90.00
2018-12-11T21:01:45.273Z,90.00
2018-12-11T21:04:14.303Z,90.00
2018-12-11T21:06:43.213Z,90.00
2018-12-11T21:09:16.022Z,90.00
2018-12-11T21:11:44.870Z,90.00
2018-12-11T21:14:14.033Z,90.10
2018-12-11T21:16:43.152Z,90.20
2018-12-11T21:19:12.001Z,90.20
2018-12-11T21:21:41.176Z,90.20
2018-12-11T21:24:10.376Z,90.10
2018-12-11T21:26:39.232Z,90.10
2018-12-11T21:29:08.466Z,90.10
2018-12-11T21:31:37.517Z,90.20
2018-12-11T21:34:06.273Z,90.20
2018-12-11T21:36:35.278Z,90.00
2018-12-11T21:39:07.233Z,90.20
2018-12-11T21:41:36.217Z,90.20
2018-12-11T21:44:05.293Z,90.30
2018-12-11T21:46:34.368Z,90.40
2018-12-11T21:49:03.174Z,90.50
2018-12-11T21:51:31.873Z,90.50
2018-12-11T21:54:00.639Z,90.50
2018-12-11T21:56:29.315Z,90.50
2018-12-11T21:58:58.043Z,90.60
2018-12-11T22:01:26.916Z,90.60
2018-12-11T22:03:55.692Z,90.60
2018-12-11T22:06:24.808Z,90.70
2018-12-11T22:08:53.735Z,90.70
2018-12-11T22:11:22.553Z,90.70
2018-12-11T22:13:51.523Z,90.80
2018-12-11T22:16:20.282Z,90.80
2018-12-11T22:18:49.224Z,90.80
2018-12-11T22:21:18.001Z,90.80
2018-12-11T22:23:46.782Z,90.80
2018-12-11T22:26:15.743Z,90.80
2018-12-11T22:28:44.499Z,90.80
2018-12-11T22:31:13.332Z,91.00
2018-12-11T22:33:42.288Z,91.00
2018-12-11T22:36:10.973Z,91.10
2018-12-11T22:38:39.653Z,91.00
2018-12-11T22:41:08.273Z,91.10
2018-12-11T22:43:37.144Z,91.10
2018-12-11T22:46:06.146Z,91.30
2018-12-11T22:48:35.262Z,91.40
2018-12-11T22:51:04.493Z,91.20
2018-12-11T22:53:33.013Z,91.30
2018-12-11T22:56:01.901Z,91.30
2018-12-11T22:58:30.692Z,91.30
2018-12-11T23:01:00.512Z,91.30
2018-12-11T23:03:29.286Z,91.30
2018-12-11T23:05:58.372Z,91.40
2018-12-11T23:08:27.288Z,91.40
2018-12-11T23:10:56.171Z,91.40
2018-12-11T23:13:24.946Z,91.50
2018-12-11T23:15:53.638Z,91.80
2018-12-11T23:18:22.317Z,91.90
2018-12-11T23:20:51.017Z,91.80
2018-12-11T23:23:20.027Z,91.70
2018-12-11T23:25:48.704Z,91.70
2018-12-11T23:28:17.460Z,91.70
2018-12-11T23:30:46.402Z,91.70
2018-12-11T23:33:15.418Z,91.70
2018-12-11T23:35:44.296Z,91.60
2018-12-11T23:38:13.043Z,91.70
2018-12-11T23:40:41.602Z,91.60
2018-12-11T23:43:10.439Z,91.70
2018-12-11T23:45:39.093Z,91.70
2018-12-11T23:48:07.677Z,91.70
2018-12-11T23:50:36.257Z,91.70
2018-12-11T23:53:05.174Z,91.70
2018-12-11T23:55:33.954Z,91.70
2018-12-11T23:58:02.847Z,91.70
